createdAt,value
2018-01-20T00:00:53.642Z,-77
2018-01-20T00:01:53.772Z,-76
2018-01-20T00:02:54.007Z,-77
2018-01-20T00:03:53.497Z,-77
2018-01-20T00:04:54.283Z,-77
2018-01-20T00:05:54.622Z,-77
2018-01-20T00:06:53.690Z,-76
2018-01-20T00:07:53.889Z,-77
2018-01-20T00:08:53.806Z,-77
2018-01-20T00:09:53.775Z,-77
2018-01-20T00:10:53.719Z,-73
2018-01-20T00:11:54.417Z,-74
2018-01-20T00:12:53.964Z,-74
2018-01-20T00:13:54.301Z,-74
2018-01-20T00:14:54.592Z,-74
2018-01-20T00:15:53.904Z,-74
2018-01-20T00:16:54.245Z,-75
2018-01-20T00:17:54.363Z,-76
2018-01-20T00:18:53.636Z,-74
2018-01-20T00:19:53.445Z,-75
2018-01-20T00:20:53.322Z,-75
2018-01-20T00:21:54.696Z,-75
2018-01-20T00:22:54.507Z,-75
2018-01-20T00:23:56.106Z,-75
2018-01-20T00:24:54.485Z,-76
2018-01-20T00:25:53.588Z,-77
2018-01-20T00:26:53.289Z,-77
2018-01-20T00:27:54.723Z,-77
2018-01-20T00:28:53.574Z,-77
2018-01-20T00:29:55.196Z,-77
2018-01-20T00:30:54.710Z,-76
2018-01-20T00:31:54.892Z,-75
2018-01-20T00:32:54.023Z,-75
2018-01-20T00:33:54.375Z,-76
2018-01-20T00:34:53.866Z,-77
2018-01-20T00:35:53.921Z,-77
2018-01-20T00:36:54.094Z,-75
2018-01-20T00:37:55.279Z,-75
2018-01-20T00:38:54.554Z,-75
2018-01-20T00:39:53.951Z,-74
2018-01-20T00:40:55.006Z,-74
2018-01-20T00:41:53.896Z,-74
2018-01-20T00:42:53.393Z,-74
2018-01-20T00:43:54.247Z,-74
2018-01-20T00:44:55.385Z,-75
2018-01-20T00:45:53.294Z,-75
2018-01-20T00:46:53.626Z,-77
2018-01-20T00:47:53.395Z,-77
2018-01-20T00:48:53.861Z,-77
2018-01-20T00:49:54.243Z,-77
2018-01-20T00:50:53.324Z,-76
2018-01-20T00:51:53.884Z,-77
2018-01-20T00:52:55.630Z,-77
2018-01-20T00:53:55.503Z,-77
2018-01-20T00:54:55.063Z,-76
2018-01-20T00:55:54.517Z,-77
2018-01-20T00:56:54.648Z,-77
2018-01-20T00:57:54.166Z,-75
2018-01-20T00:58:54.798Z,-75
2018-01-20T00:59:54.464Z,-74
2018-01-20T01:00:54.730Z,-74
2018-01-20T01:01:54.208Z,-75
2018-01-20T01:02:54.212Z,-77
2018-01-20T01:03:54.550Z,-77
2018-01-20T01:04:55.055Z,-77
2018-01-20T01:05:54.744Z,-77
2018-01-20T01:06:53.844Z,-77
2018-01-20T01:07:53.685Z,-76
2018-01-20T01:08:54.537Z,-77
2018-01-20T01:09:53.875Z,-76
2018-01-20T01:10:55.939Z,-76
2018-01-20T01:11:53.569Z,-76
2018-01-20T01:12:53.909Z,-76
2018-01-20T01:13:53.584Z,-76
2018-01-20T01:14:53.554Z,-77
2018-01-20T01:15:54.378Z,-76
2018-01-20T01:16:53.971Z,-77
2018-01-20T01:17:54.112Z,-77
2018-01-20T01:18:54.105Z,-77
2018-01-20T01:19:54.688Z,-77
2018-01-20T01:20:56.027Z,-76
2018-01-20T01:21:54.709Z,-76
2018-01-20T01:22:53.546Z,-76
2018-01-20T01:23:53.418Z,-76
2018-01-20T01:24:54.354Z,-74
2018-01-20T01:25:54.783Z,-75
2018-01-20T01:26:52.642Z,-75
2018-01-20T01:27:53.939Z,-75
2018-01-20T01:28:53.136Z,-75
2018-01-20T01:29:53.309Z,-75
2018-01-20T01:30:52.913Z,-74
2018-01-20T01:31:52.830Z,-75
2018-01-20T01:32:52.693Z,-75
2018-01-20T01:33:53.540Z,-75
2018-01-20T01:34:52.742Z,-74
2018-01-20T01:35:53.361Z,-75
2018-01-20T01:36:53.995Z,-75
2018-01-20T01:37:53.995Z,-75
2018-01-20T01:38:54.885Z,-77
2018-01-20T01:39:53.313Z,-77
2018-01-20T01:40:52.782Z,-75
2018-01-20T01:41:54.166Z,-75
2018-01-20T01:42:53.699Z,-75
2018-01-20T01:43:53.074Z,-75
2018-01-20T01:44:54.729Z,-76
2018-01-20T01:45:52.508Z,-75
2018-01-20T01:46:54.301Z,-75
2018-01-20T01:47:53.016Z,-77
2018-01-20T01:48:52.972Z,-76
2018-01-20T01:49:53.117Z,-76
2018-01-20T01:50:53.738Z,-75
2018-01-20T01:51:53.654Z,-75
2018-01-20T01:52:53.793Z,-76
2018-01-20T01:53:52.631Z,-77
2018-01-20T01:54:52.806Z,-77
2018-01-20T01:55:53.413Z,-77
2018-01-20T01:56:53.161Z,-77
2018-01-20T01:57:52.990Z,-77
2018-01-20T01:58:52.986Z,-76
2018-01-20T01:59:52.905Z,-76
2018-01-20T02:00:52.706Z,-77
2018-01-20T02:01:52.962Z,-77
2018-01-20T02:02:53.464Z,-77
2018-01-20T02:03:52.803Z,-77
2018-01-20T02:04:54.828Z,-77
2018-01-20T02:05:53.505Z,-77
2018-01-20T02:06:53.172Z,-77
2018-01-20T02:07:52.867Z,-77
2018-01-20T02:08:53.387Z,-74
2018-01-20T02:09:55.101Z,-75
2018-01-20T02:10:53.497Z,-75
2018-01-20T02:11:54.014Z,-74
2018-01-20T02:12:53.360Z,-76
2018-01-20T02:13:52.890Z,-74
2018-01-20T02:14:52.666Z,-75
2018-01-20T02:15:53.429Z,-74
2018-01-20T02:16:52.927Z,-75
2018-01-20T02:17:53.771Z,-77
2018-01-20T02:18:52.716Z,-77
2018-01-20T02:19:53.020Z,-74
2018-01-20T02:20:54.415Z,-74
2018-01-20T02:21:52.784Z,-74
2018-01-20T02:22:54.097Z,-75
2018-01-20T02:23:53.202Z,-75
2018-01-20T02:24:52.777Z,-75
2018-01-20T02:25:53.956Z,-76
2018-01-20T02:26:54.471Z,-75
2018-01-20T02:27:53.572Z,-76
2018-01-20T02:28:53.111Z,-77
2018-01-20T02:29:54.924Z,-75
2018-01-20T02:30:53.185Z,-75
2018-01-20T02:31:53.581Z,-75
2018-01-20T02:32:54.385Z,-75
2018-01-20T02:33:53.049Z,-75
2018-01-20T02:34:52.733Z,-75
2018-01-20T02:35:52.900Z,-75
2018-01-20T02:36:53.758Z,-75
2018-01-20T02:37:53.029Z,-75
2018-01-20T02:38:53.935Z,-74
2018-01-20T02:39:53.094Z,-74
2018-01-20T02:40:53.883Z,-74
2018-01-20T02:41:52.899Z,-74
2018-01-20T02:42:53.781Z,-74
2018-01-20T02:43:53.074Z,-74
2018-01-20T02:44:55.093Z,-74
2018-01-20T02:45:54.022Z,-74
2018-01-20T02:46:52.831Z,-74
2018-01-20T02:47:52.644Z,-74
2018-01-20T02:48:53.461Z,-74
2018-01-20T02:49:52.812Z,-74
2018-01-20T02:50:53.811Z,-72
2018-01-20T02:51:52.743Z,-73
2018-01-20T02:52:52.805Z,-74
2018-01-20T02:53:54.163Z,-73
2018-01-20T02:54:53.933Z,-74
2018-01-20T02:55:54.927Z,-75
2018-01-20T02:56:52.658Z,-75
2018-01-20T02:57:53.345Z,-76
2018-01-20T02:58:55.612Z,-75
2018-01-20T02:59:53.252Z,-76
2018-01-20T03:00:53.600Z,-76
2018-01-20T03:01:53.045Z,-76
2018-01-20T03:02:53.057Z,-76
2018-01-20T03:03:53.323Z,-74
2018-01-20T03:04:54.354Z,-75
2018-01-20T03:05:53.980Z,-75
2018-01-20T03:06:53.394Z,-77
2018-01-20T03:07:52.549Z,-77
2018-01-20T03:08:52.954Z,-73
2018-01-20T03:09:54.479Z,-75
2018-01-20T03:10:52.712Z,-77
2018-01-20T03:11:54.435Z,-74
2018-01-20T03:12:53.518Z,-77
2018-01-20T03:13:53.420Z,-77
2018-01-20T03:14:54.565Z,-76
2018-01-20T03:15:54.266Z,-74
2018-01-20T03:16:53.345Z,-74
2018-01-20T03:17:52.681Z,-75
2018-01-20T03:18:52.890Z,-74
2018-01-20T03:19:53.886Z,-75
2018-01-20T03:20:54.064Z,-75
2018-01-20T03:21:53.550Z,-77
2018-01-20T03:22:52.981Z,-74
2018-01-20T03:23:52.548Z,-74
2018-01-20T03:24:56.169Z,-74
2018-01-20T03:25:53.259Z,-75
2018-01-20T03:26:53.495Z,-74
2018-01-20T03:27:53.552Z,-75
2018-01-20T03:28:55.652Z,-74
2018-01-20T03:29:53.253Z,-73
2018-01-20T03:30:52.955Z,-73
2018-01-20T03:31:54.466Z,-73
2018-01-20T03:32:52.974Z,-73
2018-01-20T03:33:53.563Z,-74
2018-01-20T03:34:55.700Z,-74
2018-01-20T03:35:54.982Z,-75
2018-01-20T03:36:54.180Z,-77
2018-01-20T03:37:54.269Z,-77
2018-01-20T03:38:53.879Z,-76
2018-01-20T03:39:52.840Z,-74
2018-01-20T03:40:53.488Z,-76
2018-01-20T03:41:53.566Z,-77
2018-01-20T03:42:52.818Z,-76
2018-01-20T03:43:53.508Z,-77
2018-01-20T03:44:54.292Z,-76
2018-01-20T03:45:52.905Z,-77
2018-01-20T03:46:53.027Z,-77
2018-01-20T03:47:53.589Z,-76
2018-01-20T03:48:52.956Z,-73
2018-01-20T03:49:53.747Z,-73
2018-01-20T03:50:52.660Z,-73
2018-01-20T03:51:54.309Z,-73
2018-01-20T03:52:53.671Z,-73
2018-01-20T03:53:54.566Z,-76
2018-01-20T03:54:53.507Z,-76
2018-01-20T03:55:54.271Z,-77
2018-01-20T03:56:54.637Z,-76
2018-01-20T03:57:53.557Z,-77
2018-01-20T03:58:53.818Z,-73
2018-01-20T03:59:53.109Z,-73
2018-01-20T04:00:53.118Z,-74
2018-01-20T04:01:56.421Z,-72
2018-01-20T04:02:54.520Z,-73
2018-01-20T04:03:53.208Z,-75
2018-01-20T04:04:53.301Z,-75
2018-01-20T04:05:52.943Z,-75
2018-01-20T04:06:52.868Z,-75
2018-01-20T04:07:53.533Z,-75
2018-01-20T04:08:52.517Z,-75
2018-01-20T04:09:53.578Z,-75
2018-01-20T04:10:53.014Z,-75
2018-01-20T04:11:53.895Z,-75
2018-01-20T04:12:53.724Z,-77
2018-01-20T04:13:53.060Z,-77
2018-01-20T04:14:54.871Z,-76
2018-01-20T04:15:54.401Z,-76
2018-01-20T04:16:53.651Z,-77
2018-01-20T04:17:53.968Z,-77
2018-01-20T04:18:53.672Z,-75
2018-01-20T04:19:53.394Z,-76
2018-01-20T04:20:53.934Z,-75
2018-01-20T04:21:53.072Z,-74
2018-01-20T04:22:53.709Z,-74
2018-01-20T04:23:54.193Z,-74
2018-01-20T04:24:53.309Z,-74
2018-01-20T04:25:53.223Z,-75
2018-01-20T04:26:53.624Z,-75
2018-01-20T04:27:54.710Z,-75
2018-01-20T04:28:55.975Z,-75
2018-01-20T04:29:53.283Z,-74
2018-01-20T04:30:53.885Z,-74
2018-01-20T04:31:54.769Z,-74
2018-01-20T04:32:52.783Z,-74
2018-01-20T04:33:55.312Z,-74
2018-01-20T04:34:53.156Z,-74
2018-01-20T04:35:52.919Z,-74
2018-01-20T04:36:55.146Z,-75
2018-01-20T04:37:54.086Z,-75
2018-01-20T04:38:54.645Z,-75
2018-01-20T04:39:52.757Z,-74
2018-01-20T04:40:53.082Z,-74
2018-01-20T04:41:53.763Z,-74
2018-01-20T04:42:55.645Z,-74
2018-01-20T04:43:56.240Z,-76
2018-01-20T04:44:53.137Z,-77
2018-01-20T04:45:53.553Z,-77
2018-01-20T04:46:53.403Z,-76
2018-01-20T04:47:55.001Z,-77
2018-01-20T04:48:53.496Z,-75
2018-01-20T04:49:53.545Z,-76
2018-01-20T04:50:52.946Z,-76
2018-01-20T04:51:53.275Z,-76
2018-01-20T04:52:52.757Z,-76
2018-01-20T04:53:52.912Z,-76
2018-01-20T04:54:52.706Z,-76
2018-01-20T04:55:55.165Z,-76
2018-01-20T04:56:53.695Z,-76
2018-01-20T04:57:53.099Z,-77
2018-01-20T04:58:53.525Z,-74
2018-01-20T04:59:53.564Z,-74
2018-01-20T05:00:53.357Z,-74
2018-01-20T05:01:53.050Z,-73
2018-01-20T05:02:55.283Z,-74
2018-01-20T05:03:55.088Z,-75
2018-01-20T05:04:53.150Z,-75
2018-01-20T05:05:52.709Z,-75
2018-01-20T05:06:54.278Z,-75
2018-01-20T05:07:53.771Z,-75
2018-01-20T05:08:52.725Z,-75
2018-01-20T05:09:54.113Z,-75
2018-01-20T05:10:54.825Z,-75
2018-01-20T05:11:52.929Z,-75
2018-01-20T05:12:53.957Z,-75
2018-01-20T05:13:53.810Z,-75
2018-01-20T05:14:53.242Z,-75
2018-01-20T05:15:53.865Z,-75
2018-01-20T05:16:53.583Z,-75
2018-01-20T05:17:53.635Z,-74
2018-01-20T05:18:54.669Z,-75
2018-01-20T05:19:52.816Z,-75
2018-01-20T05:20:53.047Z,-75
2018-01-20T05:21:53.715Z,-76
2018-01-20T05:22:54.112Z,-75
2018-01-20T05:23:53.905Z,-75
2018-01-20T05:24:53.685Z,-76
2018-01-20T05:25:53.398Z,-77
2018-01-20T05:26:53.463Z,-77
2018-01-20T05:27:53.346Z,-76
2018-01-20T05:28:53.472Z,-77
2018-01-20T05:29:53.469Z,-77
2018-01-20T05:30:53.165Z,-77
2018-01-20T05:31:54.184Z,-76
2018-01-20T05:32:53.267Z,-75
2018-01-20T05:33:54.601Z,-77
2018-01-20T05:34:53.614Z,-77
2018-01-20T05:35:54.137Z,-76
2018-01-20T05:36:53.755Z,-77
2018-01-20T05:37:53.436Z,-74
2018-01-20T05:38:54.442Z,-74
2018-01-20T05:39:53.123Z,-74
2018-01-20T05:40:53.387Z,-74
2018-01-20T05:41:54.237Z,-75
2018-01-20T05:42:53.233Z,-75
2018-01-20T05:43:53.671Z,-75
2018-01-20T05:44:53.147Z,-75
2018-01-20T05:45:55.335Z,-75
2018-01-20T05:46:53.929Z,-75
2018-01-20T05:47:55.702Z,-75
2018-01-20T05:48:54.603Z,-75
2018-01-20T05:49:53.022Z,-76
2018-01-20T05:50:54.600Z,-76
2018-01-20T05:51:53.308Z,-77
2018-01-20T05:52:53.813Z,-77
2018-01-20T05:53:54.820Z,-76
2018-01-20T05:54:53.635Z,-75
2018-01-20T05:55:52.909Z,-74
2018-01-20T05:56:53.844Z,-75
2018-01-20T05:57:55.404Z,-75
2018-01-20T05:58:53.499Z,-76
2018-01-20T05:59:53.182Z,-76
2018-01-20T06:00:53.236Z,-76
2018-01-20T06:01:53.050Z,-76
2018-01-20T06:02:52.910Z,-76
2018-01-20T06:03:52.935Z,-76
2018-01-20T06:04:53.146Z,-76
2018-01-20T06:05:53.052Z,-77
2018-01-20T06:06:52.942Z,-77
2018-01-20T06:07:53.167Z,-77
2018-01-20T06:08:53.847Z,-77
2018-01-20T06:09:54.410Z,-77
2018-01-20T06:10:53.348Z,-77
2018-01-20T06:11:54.536Z,-77
2018-01-20T06:12:54.921Z,-77
2018-01-20T06:13:52.767Z,-77
2018-01-20T06:14:53.283Z,-77
2018-01-20T06:15:52.795Z,-78
2018-01-20T06:16:54.255Z,-76
2018-01-20T06:17:53.560Z,-74
2018-01-20T06:18:54.809Z,-74
2018-01-20T06:19:55.978Z,-75
2018-01-20T06:20:55.995Z,-75
2018-01-20T06:21:55.491Z,-77
2018-01-20T06:22:54.356Z,-77
2018-01-20T06:23:53.416Z,-77
2018-01-20T06:24:55.036Z,-77
2018-01-20T06:25:53.871Z,-77
2018-01-20T06:26:53.822Z,-77
2018-01-20T06:27:54.436Z,-77
2018-01-20T06:28:54.104Z,-77
2018-01-20T06:29:54.414Z,-77
2018-01-20T06:30:53.030Z,-77
2018-01-20T06:31:53.239Z,-77
2018-01-20T06:32:53.649Z,-77
2018-01-20T06:33:54.616Z,-77
2018-01-20T06:34:53.878Z,-77
2018-01-20T06:35:54.102Z,-77
2018-01-20T06:36:52.967Z,-76
2018-01-20T06:37:54.669Z,-75
2018-01-20T06:38:53.739Z,-76
2018-01-20T06:39:53.440Z,-76
2018-01-20T06:40:53.377Z,-76
2018-01-20T06:41:53.371Z,-77
2018-01-20T06:42:53.819Z,-77
2018-01-20T06:43:53.256Z,-77
2018-01-20T06:44:53.263Z,-77
2018-01-20T06:45:54.249Z,-77
2018-01-20T06:46:53.053Z,-77
2018-01-20T06:47:56.745Z,-77
2018-01-20T06:48:54.164Z,-77
2018-01-20T06:49:53.570Z,-77
2018-01-20T06:50:53.514Z,-76
2018-01-20T06:51:54.032Z,-76
2018-01-20T06:52:54.161Z,-75
2018-01-20T06:53:53.248Z,-75
2018-01-20T06:54:54.369Z,-73
2018-01-20T06:55:54.365Z,-73
2018-01-20T06:56:55.655Z,-72
2018-01-20T06:57:53.048Z,-72
2018-01-20T06:58:53.464Z,-74
2018-01-20T06:59:54.833Z,-73
2018-01-20T07:00:54.588Z,-75
2018-01-20T07:01:53.617Z,-75
2018-01-20T07:02:55.312Z,-76
2018-01-20T07:03:53.933Z,-75
2018-01-20T07:04:54.516Z,-74
2018-01-20T07:05:53.161Z,-74
2018-01-20T07:06:55.470Z,-75
2018-01-20T07:07:54.116Z,-75
2018-01-20T07:08:53.624Z,-76
2018-01-20T07:09:53.188Z,-75
2018-01-20T07:10:53.350Z,-76
2018-01-20T07:11:53.189Z,-76
2018-01-20T07:12:53.520Z,-76
2018-01-20T07:14:42.042Z,-77
2018-01-20T07:15:40.454Z,-77
2018-01-20T07:17:25.505Z,-76
2018-01-20T07:18:24.397Z,-75
2018-01-20T07:19:24.361Z,-75
2018-01-20T07:21:11.276Z,-75
2018-01-20T07:22:12.323Z,-75
2018-01-20T07:23:11.318Z,-76
2018-01-20T07:24:12.068Z,-74
2018-01-20T07:25:12.779Z,-73
2018-01-20T07:26:14.742Z,-74
2018-01-20T07:27:11.839Z,-75
2018-01-20T07:28:12.039Z,-74
2018-01-20T07:29:11.525Z,-74
2018-01-20T07:30:11.310Z,-74
2018-01-20T07:31:11.602Z,-75
2018-01-20T07:32:14.163Z,-75
2018-01-20T07:33:11.282Z,-75
2018-01-20T07:34:11.288Z,-75
2018-01-20T07:35:11.748Z,-74
2018-01-20T07:36:11.711Z,-74
2018-01-20T07:37:12.488Z,-74
2018-01-20T07:38:11.662Z,-74
2018-01-20T07:39:11.349Z,-74
2018-01-20T07:40:11.405Z,-74
2018-01-20T07:41:11.644Z,-74
2018-01-20T07:42:12.084Z,-73
2018-01-20T07:43:11.869Z,-74
2018-01-20T07:44:12.720Z,-74
2018-01-20T07:45:12.729Z,-75
2018-01-20T07:46:12.815Z,-75
2018-01-20T07:47:13.589Z,-74
2018-01-20T07:48:11.792Z,-75
2018-01-20T07:49:12.314Z,-75
2018-01-20T07:50:11.520Z,-75
2018-01-20T07:51:12.300Z,-75
2018-01-20T07:52:12.739Z,-75
2018-01-20T07:53:34.736Z,-75
2018-01-20T07:54:11.768Z,-75
2018-01-20T07:55:13.733Z,-75
2018-01-20T07:56:12.285Z,-75
2018-01-20T07:57:11.531Z,-74
2018-01-20T07:58:32.823Z,-74
2018-01-20T07:59:26.604Z,-76
2018-01-20T08:00:23.021Z,-75
2018-01-20T08:01:23.463Z,-75
2018-01-20T08:02:23.100Z,-75
2018-01-20T08:03:22.981Z,-76
2018-01-20T08:04:22.878Z,-78
2018-01-20T08:05:22.640Z,-78
2018-01-20T08:06:23.455Z,-78
2018-01-20T08:07:22.623Z,-78
2018-01-20T08:08:23.628Z,-78
2018-01-20T08:09:23.845Z,-78
2018-01-20T08:10:23.640Z,-78
2018-01-20T08:11:22.740Z,-78
2018-01-20T08:12:23.347Z,-78
2018-01-20T08:13:22.888Z,-77
2018-01-20T08:14:22.712Z,-78
2018-01-20T08:15:24.686Z,-78
2018-01-20T08:16:23.433Z,-77
2018-01-20T08:17:22.993Z,-78
2018-01-20T08:18:25.095Z,-77
2018-01-20T08:19:22.685Z,-78
2018-01-20T08:20:22.995Z,-78
2018-01-20T08:21:23.652Z,-77
2018-01-20T08:23:12.824Z,-78
2018-01-20T08:24:09.836Z,-78
2018-01-20T08:25:09.560Z,-78
2018-01-20T08:26:09.264Z,-78
2018-01-20T08:27:10.052Z,-78
2018-01-20T08:28:09.927Z,-78
2018-01-20T08:29:12.443Z,-77
2018-01-20T08:30:10.339Z,-78
2018-01-20T08:31:10.402Z,-78
2018-01-20T08:32:11.929Z,-78
2018-01-20T08:33:11.591Z,-76
2018-01-20T08:34:09.538Z,-75
2018-01-20T08:35:09.874Z,-75
2018-01-20T08:36:13.052Z,-74
2018-01-20T08:37:14.026Z,-75
2018-01-20T08:38:10.450Z,-75
2018-01-20T08:39:13.356Z,-75
2018-01-20T08:40:12.283Z,-75
2018-01-20T08:43:13.433Z,-74
2018-01-20T08:44:09.575Z,-75
2018-01-20T08:45:09.482Z,-75
2018-01-20T08:46:11.876Z,-76
2018-01-20T08:47:09.291Z,-76
2018-01-20T08:48:10.127Z,-77
2018-01-20T08:49:10.580Z,-77
2018-01-20T08:50:09.029Z,-77
2018-01-20T08:51:10.698Z,-76
2018-01-20T08:52:09.389Z,-76
2018-01-20T08:53:11.124Z,-76
2018-01-20T08:54:11.456Z,-77
2018-01-20T08:55:10.635Z,-77
2018-01-20T08:57:17.542Z,-76
2018-01-20T08:58:08.503Z,-78
2018-01-20T08:59:07.629Z,-79
2018-01-20T09:00:16.947Z,-77
2018-01-20T09:01:09.972Z,-78
2018-01-20T09:02:07.927Z,-78
2018-01-20T09:03:07.694Z,-78
2018-01-20T09:04:07.804Z,-77
2018-01-20T09:05:10.771Z,-78
2018-01-20T09:06:09.601Z,-78
2018-01-20T09:07:08.851Z,-78
2018-01-20T09:08:13.282Z,-76
2018-01-20T09:09:10.639Z,-76
2018-01-20T09:10:09.313Z,-76
2018-01-20T09:11:11.046Z,-77
2018-01-20T09:12:11.228Z,-77
2018-01-20T09:13:10.814Z,-78
2018-01-20T09:14:10.548Z,-78
2018-01-20T09:15:09.971Z,-78
2018-01-20T09:16:08.443Z,-75
2018-01-20T09:17:13.467Z,-75
2018-01-20T09:18:10.769Z,-75
2018-01-20T09:19:10.552Z,-75
2018-01-20T09:20:09.055Z,-76
2018-01-20T09:21:08.994Z,-75
2018-01-20T09:22:12.042Z,-75
2018-01-20T09:23:08.629Z,-74
2018-01-20T09:24:08.071Z,-75
2018-01-20T09:25:08.181Z,-75
2018-01-20T09:26:09.797Z,-75
2018-01-20T09:27:10.313Z,-76
2018-01-20T09:28:57.317Z,-75
2018-01-20T09:29:02.198Z,-76
2018-01-20T09:29:09.069Z,-75
2018-01-20T09:29:15.359Z,-75
2018-01-20T09:29:22.155Z,-75
2018-01-20T09:29:27.661Z,-78
2018-01-20T09:29:33.065Z,-77
2018-01-20T09:29:39.028Z,-78
2018-01-20T09:29:45.888Z,-78
2018-01-20T09:29:50.678Z,-78
2018-01-20T09:29:55.785Z,-78
2018-01-20T09:30:02.498Z,-78
2018-01-20T09:30:08.397Z,-78
2018-01-20T09:30:17.393Z,-78
2018-01-20T09:30:25.022Z,-78
2018-01-20T09:30:30.387Z,-78
2018-01-20T09:30:38.716Z,-78
2018-01-20T09:30:52.598Z,-78
2018-01-20T09:31:08.351Z,-78
2018-01-20T09:31:43.512Z,-77
2018-01-20T09:31:55.810Z,-78
2018-01-20T09:32:04.937Z,-78
2018-01-20T09:32:13.388Z,-78
2018-01-20T09:32:19.750Z,-77
2018-01-20T09:32:27.278Z,-78
2018-01-20T09:32:32.370Z,-78
2018-01-20T09:32:37.186Z,-78
2018-01-20T09:32:44.044Z,-78
2018-01-20T09:32:49.215Z,-78
2018-01-20T09:32:55.592Z,-78
2018-01-20T09:33:01.793Z,-77
2018-01-20T09:33:07.051Z,-78
2018-01-20T09:33:13.165Z,-78
2018-01-20T09:33:20.169Z,-77
2018-01-20T09:33:25.712Z,-78
2018-01-20T09:33:31.234Z,-78
2018-01-20T09:33:37.167Z,-78
2018-01-20T09:33:42.952Z,-78
2018-01-20T09:33:49.197Z,-77
2018-01-20T09:33:57.658Z,-78
2018-01-20T09:34:04.544Z,-78
2018-01-20T09:34:09.788Z,-78
2018-01-20T09:34:15.103Z,-78
2018-01-20T09:34:20.467Z,-78
2018-01-20T09:34:26.351Z,-78
2018-01-20T09:34:32.840Z,-78
2018-01-20T09:34:37.555Z,-77
2018-01-20T09:34:45.248Z,-78
2018-01-20T09:35:17.166Z,-77
2018-01-20T09:35:24.189Z,-78
2018-01-20T09:35:29.012Z,-78
2018-01-20T09:35:36.911Z,-78
2018-01-20T09:35:44.345Z,-76
2018-01-20T09:35:53.614Z,-78
2018-01-20T09:35:59.875Z,-78
2018-01-20T09:36:06.377Z,-78
2018-01-20T09:36:15.058Z,-78
2018-01-20T09:37:08.166Z,-76
2018-01-20T09:38:07.632Z,-76
2018-01-20T09:39:13.388Z,-77
2018-01-20T09:40:08.017Z,-74
2018-01-20T09:41:07.589Z,-73
2018-01-20T09:42:08.120Z,-74
2018-01-20T09:43:07.590Z,-73
2018-01-20T09:44:07.674Z,-75
2018-01-20T09:45:07.496Z,-75
2018-01-20T09:46:07.674Z,-75
2018-01-20T09:47:07.825Z,-76
2018-01-20T09:48:07.510Z,-74
2018-01-20T09:49:07.618Z,-74
2018-01-20T09:50:07.590Z,-77
2018-01-20T09:51:08.331Z,-76
2018-01-20T09:52:07.633Z,-76
2018-01-20T09:53:07.519Z,-75
2018-01-20T09:54:07.542Z,-76
2018-01-20T09:55:08.083Z,-75
2018-01-20T09:56:07.883Z,-75
2018-01-20T09:57:07.954Z,-76
2018-01-20T09:58:07.972Z,-75
2018-01-20T09:59:07.789Z,-75
2018-01-20T10:00:07.566Z,-76
2018-01-20T10:01:07.665Z,-76
2018-01-20T10:02:08.707Z,-76
2018-01-20T10:03:07.739Z,-77
2018-01-20T10:04:07.571Z,-75
2018-01-20T10:05:13.349Z,-75
2018-01-20T10:06:12.803Z,-75
2018-01-20T10:07:07.623Z,-75
2018-01-20T10:08:09.044Z,-76
2018-01-20T10:09:16.003Z,-75
2018-01-20T10:10:09.668Z,-76
2018-01-20T10:11:06.679Z,-75
2018-01-20T10:12:21.232Z,-75
2018-01-20T10:13:06.768Z,-75
2018-01-20T10:14:06.410Z,-75
2018-01-20T10:15:06.650Z,-73
2018-01-20T10:16:06.888Z,-73
2018-01-20T10:17:07.045Z,-75
2018-01-20T10:18:06.676Z,-76
2018-01-20T10:19:06.778Z,-75
2018-01-20T10:20:06.541Z,-75
2018-01-20T10:21:06.893Z,-74
2018-01-20T10:22:06.639Z,-75
2018-01-20T10:23:06.691Z,-75
2018-01-20T10:24:06.946Z,-73
2018-01-20T10:25:06.728Z,-75
2018-01-20T10:26:06.622Z,-77
2018-01-20T10:27:06.626Z,-76
2018-01-20T10:28:06.515Z,-77
2018-01-20T10:29:06.985Z,-77
2018-01-20T10:30:06.601Z,-76
2018-01-20T10:31:06.780Z,-77
2018-01-20T10:32:06.776Z,-76
2018-01-20T10:33:06.922Z,-76
2018-01-20T10:34:07.078Z,-76
2018-01-20T10:35:06.788Z,-76
2018-01-20T10:36:06.575Z,-76
2018-01-20T10:37:06.797Z,-76
2018-01-20T10:38:08.167Z,-76
2018-01-20T10:39:07.551Z,-76
2018-01-20T10:40:06.746Z,-76
2018-01-20T10:41:09.271Z,-76
2018-01-20T10:42:07.513Z,-77
2018-01-20T10:43:06.768Z,-77
2018-01-20T10:44:06.734Z,-77
2018-01-20T10:45:06.612Z,-77
2018-01-20T10:46:07.101Z,-77
2018-01-20T10:47:06.667Z,-76
2018-01-20T10:48:06.785Z,-76
2018-01-20T10:49:06.940Z,-77
2018-01-20T10:50:06.658Z,-76
2018-01-20T10:51:06.870Z,-78
2018-01-20T10:52:06.736Z,-77
2018-01-20T10:53:06.714Z,-79
2018-01-20T10:54:06.701Z,-77
2018-01-20T10:55:06.764Z,-76
2018-01-20T10:56:06.701Z,-75
2018-01-20T10:57:07.103Z,-78
2018-01-20T10:58:06.979Z,-77
2018-01-20T10:59:06.784Z,-77
2018-01-20T11:00:07.663Z,-77
2018-01-20T11:01:06.935Z,-78
2018-01-20T11:02:06.785Z,-77
2018-01-20T11:03:06.782Z,-75
2018-01-20T11:04:07.166Z,-77
2018-01-20T11:05:07.065Z,-75
2018-01-20T11:06:06.454Z,-76
2018-01-20T11:07:06.609Z,-75
2018-01-20T11:08:06.665Z,-75
2018-01-20T11:09:06.950Z,-75
2018-01-20T11:10:06.852Z,-75
2018-01-20T11:11:06.889Z,-76
2018-01-20T11:12:06.928Z,-75
2018-01-20T11:13:06.741Z,-75
2018-01-20T11:14:06.837Z,-76
2018-01-20T11:15:06.845Z,-74
2018-01-20T11:16:07.056Z,-77
2018-01-20T11:17:08.140Z,-74
2018-01-20T11:18:06.745Z,-75
2018-01-20T11:19:06.844Z,-73
2018-01-20T11:20:06.824Z,-73
2018-01-20T11:21:07.036Z,-73
2018-01-20T11:22:06.764Z,-72
2018-01-20T11:23:06.883Z,-71
2018-01-20T11:24:07.031Z,-72
2018-01-20T11:25:06.725Z,-73
2018-01-20T11:26:06.729Z,-73
2018-01-20T11:27:06.938Z,-72
2018-01-20T11:28:07.062Z,-72
2018-01-20T11:29:06.959Z,-72
2018-01-20T11:30:06.899Z,-74
2018-01-20T11:31:06.916Z,-72
2018-01-20T11:32:06.865Z,-72
2018-01-20T11:33:06.932Z,-71
2018-01-20T11:34:06.886Z,-73
2018-01-20T11:35:06.850Z,-73
2018-01-20T11:36:07.254Z,-73
2018-01-20T11:37:06.929Z,-72
2018-01-20T11:38:06.808Z,-72
2018-01-20T11:39:07.052Z,-71
2018-01-20T11:40:06.815Z,-72
2018-01-20T11:41:07.035Z,-71
2018-01-20T11:42:06.993Z,-71
2018-01-20T11:43:07.204Z,-72
2018-01-20T11:44:08.976Z,-71
2018-01-20T11:45:08.829Z,-75
2018-01-20T11:46:07.196Z,-74
2018-01-20T11:47:07.345Z,-75
2018-01-20T11:48:07.221Z,-75
2018-01-20T11:49:07.316Z,-75
2018-01-20T11:50:07.297Z,-75
2018-01-20T11:51:07.657Z,-75
2018-01-20T11:52:07.548Z,-75
2018-01-20T11:53:06.900Z,-75
2018-01-20T11:54:07.348Z,-75
2018-01-20T11:55:07.055Z,-74
2018-01-20T11:56:07.559Z,-75
2018-01-20T11:57:07.505Z,-75
2018-01-20T11:58:08.279Z,-75
2018-01-20T11:59:07.288Z,-75
2018-01-20T12:00:07.038Z,-75
2018-01-20T12:01:08.606Z,-75
2018-01-20T12:02:08.217Z,-75
2018-01-20T12:03:06.853Z,-75
2018-01-20T12:04:06.809Z,-75
2018-01-20T12:05:07.008Z,-75
2018-01-20T12:06:07.141Z,-75
2018-01-20T12:07:07.011Z,-75
2018-01-20T12:08:07.120Z,-75
2018-01-20T12:09:06.831Z,-75
2018-01-20T12:10:06.799Z,-75
2018-01-20T12:11:07.136Z,-75
2018-01-20T12:12:06.855Z,-75
2018-01-20T12:13:07.156Z,-76
2018-01-20T12:14:07.184Z,-77
2018-01-20T12:15:07.085Z,-77
2018-01-20T12:16:07.101Z,-77
2018-01-20T12:17:07.318Z,-77
2018-01-20T12:18:07.076Z,-76
2018-01-20T12:19:06.864Z,-77
2018-01-20T12:20:07.030Z,-78
2018-01-20T12:21:06.790Z,-75
2018-01-20T12:22:06.778Z,-76
2018-01-20T12:23:07.061Z,-76
2018-01-20T12:24:07.780Z,-76
2018-01-20T12:25:06.903Z,-77
2018-01-20T12:26:06.989Z,-76
2018-01-20T12:27:06.987Z,-76
2018-01-20T12:28:06.838Z,-77
2018-01-20T12:29:07.049Z,-76
2018-01-20T12:30:06.694Z,-76
2018-01-20T12:31:06.897Z,-77
2018-01-20T12:32:06.892Z,-77
2018-01-20T12:33:06.862Z,-77
2018-01-20T12:34:06.962Z,-77
2018-01-20T12:35:08.240Z,-76
2018-01-20T12:36:06.873Z,-76
2018-01-20T12:37:06.821Z,-76
2018-01-20T12:38:06.954Z,-76
2018-01-20T12:39:06.954Z,-77
2018-01-20T12:40:06.976Z,-77
2018-01-20T12:41:07.228Z,-76
2018-01-20T12:42:06.735Z,-77
2018-01-20T12:43:06.858Z,-77
2018-01-20T12:44:06.956Z,-77
2018-01-20T12:45:07.084Z,-76
2018-01-20T12:46:06.754Z,-75
2018-01-20T12:47:06.916Z,-76
2018-01-20T12:48:06.693Z,-77
2018-01-20T12:49:07.073Z,-78
2018-01-20T12:50:06.841Z,-77
2018-01-20T12:51:06.754Z,-77
2018-01-20T12:52:07.040Z,-77
2018-01-20T12:53:06.802Z,-75
2018-01-20T12:54:06.939Z,-75
2018-01-20T12:55:06.918Z,-75
2018-01-20T12:56:07.086Z,-75
2018-01-20T12:57:06.734Z,-76
2018-01-20T12:58:07.023Z,-77
2018-01-20T12:59:07.031Z,-76
2018-01-20T13:00:07.168Z,-77
2018-01-20T13:01:06.907Z,-76
2018-01-20T13:02:06.672Z,-77
2018-01-20T13:03:07.097Z,-77
2018-01-20T13:04:06.789Z,-76
2018-01-20T13:05:07.072Z,-76